KRVS

Richard Lloyd Jones Jr Airport

Tulsa, Oklahoma, USA
METAR KRVS 191853Z 20009G17KT 10SM CLR 35/20 A2992 RMK AO2 SLP132 T03500200
Observed Flight Rules
Sep-19 @ 18:53 UTC (36 minutes ago) Visual Flight Rules
Wind Visibility Clouds
200° at 9 knots
 Gusting to 17 knots
10 miles
  • Clear skies
Temperatures Readings
Current 35°C / 95°F
Dewpoint 20°C / 68°F
Humidity 41%
Altimeter 29.92" Hg
Pressure 1013.2 hPa
Elevation 200
METAR KRVS 191853Z 20009G17KT 10SM CLR 35/20 A2992 RMK AO2 SLP132 T03500200
Observed Flight Rules
Sep-19 @ 18:53 UTC
(36 minutes ago)
VFR
Wind Visibility
200° at 9 knots
 Gusting to 17 knots
10 miles
Clouds
  • Clear skies
Temperature Dewpoint
35°C / 95°F 20°C / 68°F
Humidity Altimeter Pressure
41% 29.92" Hg 1013.2 hPa